createdAt,value
2022-09-11T03:32:24.572Z,2.65
2022-09-11T03:34:51.673Z,3.20
2022-09-11T03:37:18.776Z,2.97
2022-09-11T03:54:34.527Z,3.27
2022-09-11T03:57:02.328Z,3.35
2022-09-11T03:59:29.866Z,3.37
2022-09-11T04:01:57.172Z,3.25
2022-09-11T04:04:24.598Z,3.20
2022-09-11T04:06:51.716Z,3.50
2022-09-11T04:09:18.974Z,3.03
2022-09-11T04:11:48.668Z,3.88
2022-09-11T04:14:22.685Z,3.63
2022-09-11T04:16:51.421Z,3.38
2022-09-11T04:19:19.067Z,3.30
2022-09-11T04:21:46.264Z,2.95
2022-09-11T04:24:13.625Z,2.90
2022-09-11T04:26:41.143Z,2.80
2022-09-11T04:29:14.764Z,2.88
2022-09-11T04:31:42.405Z,2.63
2022-09-11T04:34:11.597Z,2.80
2022-09-11T04:36:39.146Z,2.85
2022-09-11T04:39:10.092Z,3.00
2022-09-11T04:41:38.044Z,2.80
2022-09-11T04:44:05.759Z,2.90
2022-09-11T04:46:39.043Z,3.22
2022-09-11T04:49:09.473Z,2.60
2022-09-11T04:54:07.971Z,3.00
2022-09-11T04:56:38.489Z,3.00
2022-09-11T04:59:33.347Z,3.13
2022-09-11T05:02:11.759Z,2.80
2022-09-11T05:04:41.856Z,2.83
2022-09-11T05:07:09.321Z,3.10
2022-09-11T05:09:36.397Z,2.95
2022-09-11T05:12:05.452Z,3.15
2022-09-11T05:14:36.006Z,3.38
2022-09-11T05:19:33.930Z,3.08
2022-09-11T05:22:01.142Z,3.28
2022-09-11T05:24:31.211Z,3.05
2022-09-11T05:26:59.249Z,2.67
2022-09-11T05:29:32.674Z,2.65
2022-09-11T05:32:09.084Z,2.55
2022-09-11T05:34:36.224Z,2.85
2022-09-11T05:37:03.590Z,2.70
2022-09-11T05:39:37.580Z,2.90
2022-09-11T05:42:06.031Z,2.72
2022-09-11T05:44:37.317Z,2.75
2022-09-11T05:47:05.960Z,2.50
2022-09-11T05:49:33.121Z,2.60
2022-09-11T05:52:01.845Z,2.80
2022-09-11T05:54:30.793Z,2.83
2022-09-11T05:57:06.898Z,2.78
2022-09-11T05:59:36.753Z,2.72
2022-09-11T06:02:03.973Z,3.08
2022-09-11T06:04:39.593Z,2.92
2022-09-11T06:07:08.063Z,2.90
2022-09-11T06:09:35.968Z,2.90
2022-09-11T06:12:03.362Z,2.67
2022-09-11T06:14:30.510Z,2.65
2022-09-11T06:16:57.791Z,2.97
2022-09-11T06:19:26.920Z,2.92
2022-09-11T06:21:56.717Z,2.83
2022-09-11T06:24:37.461Z,2.85
2022-09-11T06:27:05.330Z,3.13
2022-09-11T06:29:34.924Z,2.90
2022-09-11T06:32:03.956Z,2.90
2022-09-11T06:34:32.998Z,2.97
2022-09-11T06:37:04.760Z,2.63
2022-09-11T06:39:31.952Z,2.80
2022-09-11T06:41:59.682Z,3.10
2022-09-11T06:44:30.781Z,2.80
2022-09-11T06:47:00.557Z,2.42
2022-09-11T06:49:27.832Z,3.00
2022-09-11T06:52:13.560Z,2.45
2022-09-11T06:54:49.485Z,2.65
2022-09-11T06:57:17.154Z,3.17
2022-09-11T06:59:44.982Z,3.45
2022-09-11T07:02:12.543Z,2.65
2022-09-11T07:04:39.660Z,2.72
2022-09-11T07:07:08.194Z,3.10
2022-09-11T07:09:36.994Z,2.70
2022-09-11T07:12:04.330Z,3.17
2022-09-11T07:14:32.965Z,2.83
2022-09-11T07:17:10.474Z,2.50
2022-09-11T07:19:39.395Z,2.80
2022-09-11T07:22:06.607Z,4.47
2022-09-11T07:24:34.651Z,3.35
2022-09-11T07:27:01.914Z,2.97
2022-09-11T07:29:34.147Z,2.80
2022-09-11T07:32:02.102Z,2.75
2022-09-11T07:34:29.217Z,2.70
2022-09-11T07:36:58.473Z,2.90
2022-09-11T07:39:27.010Z,2.92
2022-09-11T07:42:00.344Z,2.83
2022-09-11T07:44:34.303Z,2.90
2022-09-11T07:47:02.555Z,2.50
2022-09-11T07:49:32.760Z,2.60
2022-09-11T07:52:00.037Z,2.90
2022-09-11T07:54:36.694Z,2.88
2022-09-11T07:57:05.772Z,2.78
2022-09-11T07:59:32.942Z,2.80
2022-09-11T08:02:00.254Z,2.50
2022-09-11T08:04:28.958Z,2.55
2022-09-11T08:06:56.820Z,2.40
2022-09-11T08:09:31.702Z,2.72
2022-09-11T08:12:02.227Z,2.70
2022-09-11T08:14:31.996Z,3.35
2022-09-11T08:17:07.400Z,3.22
2022-09-11T08:19:37.164Z,2.60
2022-09-11T08:22:04.479Z,2.58
2022-09-11T08:24:36.247Z,2.90
2022-09-11T08:27:07.012Z,3.03
2022-09-11T08:29:38.121Z,2.65
2022-09-11T08:32:06.696Z,2.70
2022-09-11T08:34:34.222Z,2.70
2022-09-11T08:37:01.338Z,2.67
2022-09-11T08:39:32.491Z,2.67
2022-09-11T08:42:15.177Z,2.60
2022-09-11T08:44:54.289Z,2.42
2022-09-11T08:47:33.685Z,2.80
2022-09-11T08:50:40.175Z,2.22
2022-09-11T08:53:15.551Z,2.28
2022-09-11T08:55:49.405Z,2.35
2022-09-11T08:58:58.030Z,2.35
2022-09-11T09:01:36.206Z,2.40
2022-09-11T09:04:23.558Z,2.30
2022-09-11T09:07:15.600Z,2.53
2022-09-11T09:09:58.054Z,2.30
2022-09-11T09:12:52.882Z,2.35
2022-09-11T09:15:45.375Z,2.45
2022-09-11T09:18:33.078Z,2.35
2022-09-11T09:21:13.094Z,2.58
2022-09-11T09:24:02.911Z,2.60
2022-09-11T09:26:41.221Z,2.40
2022-09-11T09:29:17.921Z,2.80
2022-09-11T09:31:48.137Z,2.10
2022-09-11T09:34:21.159Z,2.40
2022-09-11T09:37:00.945Z,2.55
2022-09-11T09:39:29.253Z,2.33
2022-09-11T09:42:43.466Z,3.00
2022-09-11T09:45:20.348Z,2.67
2022-09-11T09:47:49.137Z,2.97
2022-09-11T09:50:33.576Z,2.95
2022-09-11T09:53:27.695Z,2.30
2022-09-11T09:55:56.768Z,2.60
2022-09-11T09:58:27.441Z,2.20
2022-09-11T10:00:54.516Z,2.38
2022-09-11T10:03:24.370Z,3.30
2022-09-11T10:05:54.719Z,2.50
2022-09-11T10:08:35.681Z,2.38
2022-09-11T10:11:04.895Z,2.60
2022-09-11T10:13:34.896Z,2.90
2022-09-11T10:16:04.738Z,2.65
2022-09-11T10:18:41.763Z,2.40
2022-09-11T10:21:12.110Z,2.30
2022-09-11T10:23:48.133Z,2.63
2022-09-11T10:26:37.078Z,2.63
2022-09-11T10:29:27.370Z,3.20
2022-09-11T10:32:05.946Z,2.50
2022-09-11T10:34:38.329Z,3.10
2022-09-11T10:37:14.425Z,2.95
2022-09-11T10:39:46.607Z,2.55
2022-09-11T10:42:23.285Z,2.53
2022-09-11T10:44:53.169Z,2.70
2022-09-11T10:47:30.371Z,2.90
2022-09-11T10:50:19.338Z,2.50
2022-09-11T10:52:58.726Z,2.95
2022-09-11T10:55:30.028Z,2.47
2022-09-11T10:58:00.676Z,2.65
2022-09-11T11:00:28.332Z,2.97
2022-09-11T11:03:00.423Z,2.40
2022-09-11T11:05:35.576Z,2.58
2022-09-11T11:08:36.052Z,2.97
2022-09-11T11:11:12.811Z,2.53
2022-09-11T11:13:42.836Z,2.40
2022-09-11T11:16:45.865Z,2.42
2022-09-11T11:19:38.622Z,2.83
2022-09-11T11:22:36.765Z,3.05
2022-09-11T11:25:42.374Z,2.55
2022-09-11T11:28:35.910Z,3.10
2022-09-11T11:31:29.048Z,2.90
2022-09-11T11:34:18.377Z,2.90
2022-09-11T11:36:52.316Z,2.70
2022-09-11T11:39:30.851Z,2.65
2022-09-11T11:42:29.296Z,2.10
2022-09-11T11:45:07.188Z,2.80
2022-09-11T11:47:44.587Z,2.63
2022-09-11T11:50:20.343Z,2.40
2022-09-11T11:52:59.756Z,2.60
2022-09-11T11:55:36.648Z,2.63
2022-09-11T11:58:12.834Z,2.47
2022-09-11T12:00:47.188Z,2.83
2022-09-11T12:03:23.838Z,2.50
2022-09-11T12:05:51.141Z,2.45
2022-09-11T12:08:18.311Z,2.15
2022-09-11T12:11:07.802Z,2.25
2022-09-11T12:13:40.903Z,2.20
2022-09-11T12:16:28.687Z,2.30
2022-09-11T12:19:14.473Z,2.28
2022-09-11T12:22:03.414Z,2.40
2022-09-11T12:27:36.196Z,2.33
2022-09-11T12:30:18.792Z,2.47
2022-09-11T12:32:47.831Z,2.30
2022-09-11T12:35:33.071Z,2.25
2022-09-11T12:38:18.444Z,2.75
2022-09-11T12:40:56.452Z,2.63
2022-09-11T12:43:35.676Z,2.85
2022-09-11T12:46:34.820Z,2.72
2022-09-11T12:49:25.765Z,2.42
2022-09-11T12:51:59.618Z,2.63
2022-09-11T12:54:38.519Z,2.92
2022-09-11T12:57:08.190Z,3.35
2022-09-11T12:59:41.123Z,2.70
2022-09-11T13:02:38.143Z,2.22
2022-09-11T13:05:06.774Z,3.30
2022-09-11T13:07:37.656Z,4.78
2022-09-11T13:10:10.305Z,4.30
2022-09-11T13:13:07.474Z,4.65
2022-09-11T13:15:39.065Z,5.10
2022-09-11T13:18:21.924Z,3.97
2022-09-11T13:21:08.310Z,3.92
2022-09-11T15:44:24.897Z,2.88
2022-09-11T15:46:53.638Z,2.85
2022-09-11T17:28:00.255Z,3.85
2022-09-11T17:30:27.869Z,3.85
2022-09-11T17:32:55.313Z,4.10
2022-09-11T17:35:22.814Z,4.00
2022-09-11T17:37:50.814Z,4.13
2022-09-11T17:40:18.528Z,3.65
2022-09-11T17:42:48.150Z,4.03
2022-09-11T17:45:15.877Z,4.15
2022-09-11T17:47:43.475Z,4.20
2022-09-11T17:50:11.147Z,4.40
2022-09-11T17:52:38.764Z,4.17
2022-09-11T17:55:06.862Z,4.25
2022-09-11T17:57:34.415Z,3.95
2022-09-11T18:00:03.466Z,4.15
2022-09-11T18:02:40.038Z,3.95
2022-09-11T18:05:07.742Z,4.30
2022-09-11T18:07:35.276Z,4.13
2022-09-11T18:10:04.149Z,3.72
2022-09-11T18:12:35.332Z,4.00
2022-09-11T18:15:03.912Z,4.10
2022-09-11T18:19:59.185Z,2.80
2022-09-11T18:22:29.742Z,3.28
2022-09-11T18:24:59.891Z,2.60
2022-09-11T18:27:27.603Z,2.63
2022-09-11T18:29:55.245Z,2.45
2022-09-11T18:32:22.675Z,2.50
2022-09-11T18:34:50.189Z,2.08
2022-09-11T18:37:17.862Z,2.22
2022-09-11T18:39:48.375Z,2.08
2022-09-11T18:42:18.084Z,2.33
2022-09-11T18:44:45.696Z,2.05
2022-09-11T18:47:13.091Z,2.05
2022-09-11T18:49:40.611Z,2.38
2022-09-11T18:52:08.915Z,2.30
2022-09-11T18:54:37.310Z,2.40
2022-09-11T18:57:04.997Z,2.47
2022-09-11T18:59:32.487Z,2.47
2022-09-11T19:02:00.859Z,2.90
2022-09-11T19:04:28.526Z,2.80
2022-09-11T19:06:55.962Z,2.97
2022-09-11T19:09:23.622Z,3.38
2022-09-11T19:11:52.526Z,2.92
2022-09-11T19:14:20.031Z,2.95
2022-09-11T19:16:49.240Z,3.22
2022-09-11T19:19:16.703Z,2.88
2022-09-11T19:21:44.580Z,3.00
2022-09-11T19:24:12.690Z,2.90
2022-09-11T19:26:42.394Z,3.08
2022-09-11T19:29:10.266Z,3.00
2022-09-11T19:31:39.698Z,3.40
2022-09-11T19:34:07.813Z,3.00
2022-09-11T19:36:36.125Z,3.42
2022-09-11T19:39:03.834Z,2.83
2022-09-11T19:41:32.349Z,3.08
2022-09-11T19:44:01.730Z,3.17
2022-09-11T19:46:30.184Z,2.60
2022-09-11T19:49:00.347Z,2.53
2022-09-11T19:51:32.262Z,2.67
2022-09-11T19:54:02.819Z,2.78
2022-09-11T19:56:31.398Z,2.80
2022-09-11T19:59:00.319Z,2.95
2022-09-11T20:01:29.479Z,2.90
2022-09-11T20:03:57.605Z,2.90
2022-09-11T20:06:26.451Z,3.22
2022-09-11T20:09:13.516Z,3.28
2022-09-11T20:11:42.372Z,3.20
2022-09-11T20:14:10.357Z,3.15
2022-09-11T20:16:38.394Z,2.92
2022-09-11T20:19:06.646Z,3.03
2022-09-11T20:21:36.171Z,3.25
2022-09-11T20:24:06.623Z,3.40
2022-09-11T20:26:34.694Z,3.10
2022-09-11T20:29:03.151Z,3.35
2022-09-11T20:31:32.440Z,3.00
2022-09-11T20:34:00.866Z,3.10
2022-09-11T20:36:30.112Z,3.00
2022-09-11T20:39:00.049Z,3.13
2022-09-11T20:41:29.893Z,3.13
2022-09-11T20:43:58.279Z,3.13
2022-09-11T20:46:26.368Z,3.28
2022-09-11T20:48:54.230Z,3.10
2022-09-11T20:51:22.789Z,3.35
2022-09-11T20:53:50.366Z,3.58
2022-09-11T20:56:20.422Z,3.05
2022-09-11T20:58:47.911Z,3.33
2022-09-11T21:01:16.689Z,3.40
2022-09-11T21:03:48.708Z,3.10
2022-09-11T21:06:16.253Z,3.10
2022-09-11T21:08:44.459Z,3.30
2022-09-11T21:11:13.119Z,2.95
2022-09-11T21:13:41.282Z,3.30
2022-09-11T21:16:10.910Z,2.88
2022-09-11T21:18:38.778Z,2.90
2022-09-11T21:21:06.592Z,3.15
2022-09-11T21:23:34.187Z,3.08
2022-09-11T21:26:01.971Z,3.17
2022-09-11T21:28:29.691Z,2.73
2022-09-11T21:30:58.722Z,3.40
2022-09-11T21:33:27.054Z,3.05
2022-09-11T21:35:55.662Z,2.88
2022-09-11T21:38:30.318Z,3.08
2022-09-11T21:40:59.378Z,3.08
2022-09-11T21:43:27.442Z,2.85
2022-09-11T21:45:55.500Z,2.83
2022-09-11T21:48:23.610Z,3.20
2022-09-11T21:50:51.158Z,3.00
2022-09-11T21:53:19.105Z,3.20
2022-09-11T21:55:47.490Z,3.10
2022-09-11T21:58:19.354Z,2.70
2022-09-11T22:00:51.380Z,2.42
2022-09-11T22:03:19.885Z,2.92
2022-09-11T22:05:49.315Z,2.60
2022-09-11T22:08:18.741Z,2.75
2022-09-11T22:10:48.732Z,2.90
2022-09-11T22:13:16.846Z,2.90
2022-09-11T22:15:45.309Z,2.63
2022-09-11T22:18:13.336Z,2.80
2022-09-11T22:20:41.804Z,2.70
2022-09-11T22:23:09.979Z,2.72
2022-09-11T22:25:37.869Z,2.60
2022-09-11T22:28:05.714Z,2.88
2022-09-11T22:30:33.917Z,2.70
2022-09-11T22:33:01.604Z,2.60
2022-09-11T22:35:30.251Z,2.78
2022-09-11T22:40:28.294Z,2.78
2022-09-11T22:42:57.153Z,2.75
2022-09-11T22:45:24.664Z,2.83
2022-09-11T22:47:52.209Z,2.70
2022-09-11T22:50:19.744Z,2.90
2022-09-11T22:52:47.276Z,2.30
2022-09-11T22:55:15.031Z,2.30
2022-09-11T22:57:42.495Z,2.60
2022-09-11T23:00:11.449Z,2.50
2022-09-11T23:02:39.130Z,2.90
2022-09-11T23:08:12.454Z,2.00
2022-09-11T23:10:44.027Z,2.15
2022-09-11T23:13:11.724Z,2.40
2022-09-11T23:15:39.160Z,2.28
2022-09-11T23:18:06.730Z,2.40
2022-09-11T23:20:34.214Z,2.47
2022-09-11T23:23:03.958Z,2.28
2022-09-11T23:25:31.818Z,2.30
2022-09-11T23:27:59.258Z,2.30
2022-09-11T23:30:26.818Z,2.20
2022-09-11T23:32:54.464Z,2.10
2022-09-11T23:35:22.962Z,2.10
2022-09-11T23:37:50.479Z,2.25
2022-09-11T23:40:18.205Z,2.10
2022-09-11T23:42:45.860Z,2.28
2022-09-11T23:45:13.403Z,2.42
2022-09-11T23:47:40.901Z,1.88
2022-09-11T23:50:09.539Z,2.28
2022-09-11T23:52:39.589Z,2.10
2022-09-11T23:55:07.725Z,2.08
2022-09-11T23:57:35.373Z,2.03
